ENCNENSO

Guest
Details From ENCN - Kristiansand lufthavn Kjevik
To ENSO - Stord Sorstokken
Flight Number -
Tags generated
Created
Modified
Stats Distance 130 nm / 241 km
Max Altitude 14,700 ft / 4,481 m
Waypoints 3
Social Downloads 5
Likes 0
Share VATSIM

Download

Looking for another format? Having issues loading an existing format? Contact us
Advertisement - Login to hide

Notes

Basic altitude profile: - Ascent Rate: 2500ft/min - Ascent Speed: 250kts - Cruise Altitude: 200ft - Cruise Speed: 300kts - Descent Rate: 1500ft/min - Descent Speed: 250kts Options: - Use NATs: yes - Use PACOTS: yes - Use low airways: yes - Use high airways: yes

Route

ENCN SOXUS ENSO

ID Type Via Altitude Latitude Longitude Leg Dist Tot Dist Heading (true) Name
O ENCN APT - 0 ft / 0 m 58.20419˚ 8.08534˚ - 0 nm - Kristiansand lufthavn Kjevik
SOXUS FIX - 14,700 ft / 4,481 m 58.87278˚ 7.50000˚ 44 nm 44 nm 336° / 335° -
O ENSO APT - 0 ft / 0 m 59.79192˚ 5.34085˚ 86 nm 130 nm 311° / 309° Stord Sorstokken

Altitude Profile

Advertisement - Login to hide

ENCN

Details ICAO ENCN (KRS)
Name Kristiansand lufthavn Kjevik
Region Norway
Timezone Europe/Oslo (UTC+1.0)
Stats Elevation 57 ft / 17 m (AMSL)
Location 58.204191° 8.085337°
Runways 1
Magnetic Variation 2.112° E

METAR

ENCN 140820Z 04011KT 7000 -RASN SCT003 BKN006 01/00 Q0977

Decode

TAF

Not found

Departure Runways

ID Width Length Bearing (true) Bearing (mag) Surface Threshold Offset Overrun Length
04 148 ft / 45 m 6,667 ft / 2,032 m 34.94° 32.83° Asphalt 217 ft / 66 m 131 ft / 40 m
22 148 ft / 45 m 6,667 ft / 2,032 m 214.96° 212.85° Asphalt 325 ft / 99 m 312 ft / 95 m

ENSO

Details ICAO ENSO (SRP)
Name Stord Sorstokken
Region Norway
Timezone Europe/Oslo (UTC+1.0)
Stats Elevation 161 ft / 49 m (AMSL)
Location 59.791925° 5.340850°
Runways 1
Magnetic Variation 0.920° E

METAR

ENSO 140820Z 16005KT 9999 -SHRA FEW015 03/02 Q0976

Decode

TAF

Not found

Destination Runways

ID Width Length Bearing (true) Bearing (mag) Surface Threshold Offset Overrun Length
14 98 ft / 30 m 4,779 ft / 1,457 m 144.82° 143.90° Asphalt 230 ft / 70 m 0 ft / 0 m
32 98 ft / 30 m 4,779 ft / 1,457 m 324.84° 323.92° Asphalt 230 ft / 70 m 0 ft / 0 m

Approach Navaids

Runway Type Ident Frequency Range Bearing (true) Bearing (mag) Slope Elevation
14 Localiser SRD 110.10 MHz 18 nm / 33 km 144.99° 144.07° - 151 ft / 46 m (AMSL)